Terminal Aerodrome Forecast
Issued by NWS Cleveland, OH

Home | Current Version | Previous Version | Text Only | Print | Product List | Glossary On
Versions: 1 2 3 4 5 6 7 8 9 10 11 12 13 14 15 16 17
000
FTUS41 KCLE 191100
TAFERI
TAF
KERI 191135Z 1912/2012 07010KT P6SM SCT060 BKN150
     FM191400 10015G25KT P6SM BKN060 OVC150
     FM192300 12020G30KT 5SM -SHRA SCT025 OVC060
     FM200100 14022G35KT 3SM -SHRA SCT015 OVC025
     FM200500 15022G35KT 6SM -SHRA OVC015
     FM200900 20015G25KT P6SM VCSH OVC030=

USA.gov is the U.S. government's official web portal to all federal, state and local government web resources and services.